createdAt,value
2023-02-09T00:01:25.899Z,97132.06
2023-02-09T00:03:55.696Z,97134.63
2023-02-09T00:06:25.059Z,97139.44
2023-02-09T00:08:53.481Z,97137.03
2023-02-09T00:11:43.915Z,97134.94
2023-02-09T00:14:14.233Z,97126.09
2023-02-09T00:16:44.952Z,97132.97
2023-02-09T00:19:15.208Z,97132.78
2023-02-09T00:21:43.604Z,97126.31
2023-02-09T00:24:12.398Z,97144.94
2023-02-09T00:26:41.489Z,97125.28
2023-02-09T00:29:11.954Z,97127.47
2023-02-09T00:31:41.921Z,97133.56
2023-02-09T00:34:10.281Z,97136.56
2023-02-09T00:36:38.720Z,97129.06
2023-02-09T00:39:07.168Z,97128.53
2023-02-09T00:41:52.815Z,97122.50
2023-02-09T00:44:21.362Z,97143.97
2023-02-09T00:46:52.989Z,97133.56
2023-02-09T00:49:22.056Z,97046.41
2023-02-09T00:51:51.791Z,97138.91
2023-02-09T00:54:21.224Z,97131.47
2023-02-09T00:56:50.879Z,97135.06
2023-02-09T00:59:20.240Z,97116.63
2023-02-09T01:01:51.216Z,97115.66
2023-02-09T01:04:21.011Z,97108.34
2023-02-09T01:06:50.450Z,97027.28
2023-02-09T01:09:20.779Z,97113.03
2023-02-09T01:11:50.274Z,97114.59
2023-02-09T01:14:19.753Z,97082.81
2023-02-09T01:16:49.943Z,97111.88
2023-02-09T01:19:21.326Z,97111.03
2023-02-09T01:21:51.205Z,97114.78
2023-02-09T01:24:20.895Z,97116.91
2023-02-09T01:26:50.728Z,97113.72
2023-02-09T01:29:22.298Z,97117.19
2023-02-09T01:31:52.192Z,97113.34
2023-02-09T01:34:23.360Z,97097.56
2023-02-09T01:36:52.919Z,97090.94
2023-02-09T01:39:22.462Z,97092.03
2023-02-09T01:41:51.826Z,97084.44
2023-02-09T01:44:57.726Z,97085.19
2023-02-09T01:47:27.275Z,97072.47
2023-02-09T01:49:58.060Z,97066.94
2023-02-09T01:52:31.541Z,97057.41
2023-02-09T01:55:03.282Z,97065.88
2023-02-09T01:57:38.114Z,97065.47
2023-02-09T02:00:12.182Z,97057.56
2023-02-09T02:02:43.807Z,97060.28
2023-02-09T02:05:14.777Z,97056.16
2023-02-09T02:07:49.238Z,97054.34
2023-02-09T02:10:17.956Z,97047.81
2023-02-09T02:12:48.293Z,97048.09
2023-02-09T02:15:18.813Z,97007.84
2023-02-09T02:18:09.104Z,97046.47
2023-02-09T02:21:33.650Z,97045.63
2023-02-09T02:24:31.833Z,97047.06
2023-02-09T02:27:03.831Z,97058.63
2023-02-09T02:30:04.429Z,97047.81
2023-02-09T02:32:45.029Z,97040.75
2023-02-09T02:35:27.685Z,97039.78
2023-02-09T02:38:05.151Z,97035.34
2023-02-09T02:40:45.778Z,97024.19
2023-02-09T02:43:25.584Z,97037.50
2023-02-09T02:46:00.829Z,97034.22
2023-02-09T02:48:39.866Z,97031.38
2023-02-09T02:51:13.930Z,97012.97
2023-02-09T02:53:49.242Z,97021.19
2023-02-09T02:56:24.293Z,97029.63
2023-02-09T02:58:56.906Z,97028.94
2023-02-09T03:01:31.912Z,97024.81
2023-02-09T03:04:03.688Z,97000.94
2023-02-09T03:06:35.899Z,96976.72
2023-02-09T03:09:05.982Z,97019.03
2023-02-09T03:11:40.668Z,97013.28
2023-02-09T03:14:32.553Z,97013.75
2023-02-09T03:17:14.771Z,97009.22
2023-02-09T03:19:51.502Z,97024.19
2023-02-09T03:22:30.184Z,97018.56
2023-02-09T03:25:04.798Z,97022.31
2023-02-09T03:27:38.946Z,97018.03
2023-02-09T03:30:12.306Z,97017.06
2023-02-09T03:32:42.982Z,97011.25
2023-02-09T03:35:17.184Z,97015.97
2023-02-09T03:37:46.992Z,97017.06
2023-02-09T03:40:16.579Z,97007.19
2023-02-09T03:42:46.450Z,97018.13
2023-02-09T03:45:15.845Z,96998.63
2023-02-09T03:47:45.412Z,97011.88
2023-02-09T03:50:16.623Z,97009.03
2023-02-09T03:52:45.430Z,97003.00
2023-02-09T03:55:15.382Z,97011.44
2023-02-09T03:57:44.754Z,97012.88
2023-02-09T04:00:15.823Z,97018.44
2023-02-09T04:02:46.277Z,97011.25
2023-02-09T04:05:17.774Z,97016.97
2023-02-09T04:07:46.437Z,97027.78
2023-02-09T04:10:15.824Z,97010.22
2023-02-09T04:12:45.232Z,97013.28
2023-02-09T04:15:15.221Z,97008.31
2023-02-09T04:17:44.575Z,97005.28
2023-02-09T04:20:14.532Z,97007.56
2023-02-09T04:22:45.857Z,97003.25
2023-02-09T04:25:15.283Z,97002.59
2023-02-09T04:27:44.749Z,97004.66
2023-02-09T04:30:15.786Z,97000.38
2023-02-09T04:32:45.146Z,96989.03
2023-02-09T04:35:15.295Z,96989.63
2023-02-09T04:37:45.059Z,96974.28
2023-02-09T04:40:13.861Z,96989.94
2023-02-09T04:42:42.332Z,96984.69
2023-02-09T04:45:12.346Z,96927.16
2023-02-09T04:47:40.730Z,96983.31
2023-02-09T04:50:09.620Z,96947.56
2023-02-09T04:52:37.901Z,96975.41
2023-02-09T04:55:09.344Z,96979.53
2023-02-09T04:57:54.785Z,96973.66
2023-02-09T05:00:23.409Z,96965.09
2023-02-09T05:02:51.734Z,96977.06
2023-02-09T05:05:20.923Z,96973.75
2023-02-09T05:07:49.335Z,96976.97
2023-02-09T05:10:19.379Z,96985.28
2023-02-09T05:12:47.765Z,96987.47
2023-02-09T05:15:16.407Z,96984.19
2023-02-09T05:17:46.127Z,96988.06
2023-02-09T05:20:14.562Z,96991.97
2023-02-09T05:22:42.937Z,96992.25
2023-02-09T05:25:13.124Z,96997.66
2023-02-09T05:27:42.856Z,96994.19
2023-02-09T05:30:12.602Z,96982.06
2023-02-09T05:32:42.768Z,97003.06
2023-02-09T05:35:11.216Z,97002.22
2023-02-09T05:37:40.429Z,96990.59
2023-02-09T05:40:10.296Z,97005.00
2023-02-09T05:42:38.726Z,96991.16
2023-02-09T05:45:10.917Z,96965.81
2023-02-09T05:47:39.271Z,96998.50
2023-02-09T05:50:07.851Z,96989.13
2023-02-09T05:52:36.293Z,96991.75
2023-02-09T05:55:04.937Z,96994.38
2023-02-09T05:57:33.497Z,96972.16
2023-02-09T06:00:01.836Z,97003.75
2023-02-09T06:02:31.833Z,96895.72
2023-02-09T06:05:00.367Z,96998.66
2023-02-09T06:07:30.330Z,96935.75
2023-02-09T06:09:58.672Z,96998.97
2023-02-09T06:12:27.350Z,96996.75
2023-02-09T06:14:55.663Z,97000.19
2023-02-09T06:17:25.994Z,97005.06
2023-02-09T06:19:55.794Z,97005.63
2023-02-09T06:22:24.209Z,97008.81
2023-02-09T06:24:52.475Z,97000.38
2023-02-09T06:27:23.362Z,97007.88
2023-02-09T06:29:51.704Z,97013.13
2023-02-09T06:32:20.125Z,97009.81
2023-02-09T06:34:48.583Z,97022.13
2023-02-09T06:37:18.340Z,96970.09
2023-02-09T06:39:47.638Z,97017.41
2023-02-09T06:42:17.356Z,97017.44
2023-02-09T06:44:46.882Z,97018.00
2023-02-09T06:47:15.309Z,97002.63
2023-02-09T06:49:43.637Z,97014.53
2023-02-09T06:52:12.147Z,97023.63
2023-02-09T06:54:45.096Z,97023.06
2023-02-09T06:57:13.556Z,97011.16
2023-02-09T06:59:42.888Z,97011.94
2023-02-09T07:02:11.872Z,97006.94
2023-02-09T07:04:41.238Z,97004.84
2023-02-09T07:07:09.724Z,97016.59
2023-02-09T07:09:38.133Z,97004.38
2023-02-09T07:12:08.840Z,97010.47
2023-02-09T07:14:37.218Z,97011.56
2023-02-09T07:17:05.536Z,97010.97
2023-02-09T07:19:33.984Z,97008.84
2023-02-09T07:22:03.407Z,97015.94
2023-02-09T07:24:32.033Z,96999.03
2023-02-09T07:27:01.263Z,97011.34
2023-02-09T07:29:34.422Z,97002.59
2023-02-09T07:32:02.945Z,96998.28
2023-02-09T07:34:32.447Z,97006.72
2023-02-09T07:37:01.875Z,97020.41
2023-02-09T07:39:31.545Z,97006.97
2023-02-09T07:42:00.328Z,96999.06
2023-02-09T07:44:31.447Z,97001.69
2023-02-09T07:47:00.897Z,97005.13
2023-02-09T07:49:30.559Z,96994.47
2023-02-09T07:52:01.245Z,96990.59
2023-02-09T07:54:29.920Z,96974.56
2023-02-09T07:56:59.791Z,96988.34
2023-02-09T07:59:29.328Z,96951.91
2023-02-09T08:02:02.528Z,96986.97
2023-02-09T08:04:32.328Z,96984.03
2023-02-09T08:07:01.774Z,96967.88
2023-02-09T08:09:30.552Z,96977.59
2023-02-09T08:12:03.343Z,96979.78
2023-02-09T08:14:41.052Z,96956.09
2023-02-09T08:17:24.519Z,96983.81
2023-02-09T08:19:59.705Z,96977.63
2023-02-09T08:22:32.012Z,96978.38
2023-02-09T08:25:03.892Z,96952.59
2023-02-09T08:27:34.942Z,96984.06
2023-02-09T08:30:05.260Z,96985.44
2023-02-09T08:32:36.720Z,96984.81
2023-02-09T08:35:05.981Z,96979.53
2023-02-09T08:37:35.134Z,96984.19
2023-02-09T08:40:03.854Z,96969.84
2023-02-09T08:42:33.625Z,96981.09
2023-02-09T08:45:02.377Z,96970.06
2023-02-09T08:47:31.962Z,96980.31
2023-02-09T08:50:01.716Z,96971.06
2023-02-09T08:52:31.235Z,96987.47
2023-02-09T08:54:59.553Z,96951.03
2023-02-09T08:57:42.802Z,96988.41
2023-02-09T09:00:14.795Z,96983.84
2023-02-09T09:02:43.340Z,96992.44
2023-02-09T09:05:14.324Z,96971.44
2023-02-09T09:07:42.840Z,96987.53
2023-02-09T09:10:12.616Z,96983.91
2023-02-09T09:12:41.534Z,97008.47
2023-02-09T09:15:11.878Z,97011.03
2023-02-09T09:17:42.533Z,97017.28
2023-02-09T09:20:13.869Z,96972.31
2023-02-09T09:22:43.844Z,97017.28
2023-02-09T09:25:13.976Z,97015.06
2023-02-09T09:27:43.600Z,97025.31
2023-02-09T09:30:14.199Z,97027.94
2023-02-09T09:32:44.972Z,97006.22
2023-02-09T09:35:14.804Z,97037.13
2023-02-09T09:37:44.129Z,97036.81
2023-02-09T09:40:19.539Z,97026.59
2023-02-09T09:42:53.812Z,97007.47
2023-02-09T09:45:27.309Z,97031.66
2023-02-09T09:47:58.080Z,97028.56
2023-02-09T09:50:34.057Z,97031.03
2023-02-09T09:53:08.178Z,97026.59
2023-02-09T09:55:39.372Z,97033.16
2023-02-09T09:58:10.858Z,97041.78
2023-02-09T10:00:43.370Z,97035.19
2023-02-09T10:03:17.032Z,97036.50
2023-02-09T10:05:49.525Z,97035.50
2023-02-09T10:08:25.233Z,97037.69
2023-02-09T10:11:00.600Z,97033.75
2023-02-09T10:13:36.170Z,97035.75
2023-02-09T10:16:12.328Z,97019.09
2023-02-09T10:18:41.076Z,97015.16
2023-02-09T10:21:14.360Z,97015.81
2023-02-09T10:23:46.884Z,97024.41
2023-02-09T10:26:26.527Z,97009.91
2023-02-09T10:28:57.224Z,97000.63
2023-02-09T10:31:30.668Z,96963.81
2023-02-09T10:34:03.817Z,97006.25
2023-02-09T10:36:37.901Z,97003.63
2023-02-09T10:39:15.696Z,96998.84
2023-02-09T10:41:47.269Z,97003.78
2023-02-09T10:44:21.361Z,96970.09
2023-02-09T10:46:51.438Z,96991.34
2023-02-09T10:49:38.031Z,96982.91
2023-02-09T10:52:19.598Z,96969.16
2023-02-09T10:54:51.714Z,96975.78
2023-02-09T10:57:28.395Z,96923.53
2023-02-09T10:59:59.347Z,96961.91
2023-02-09T11:02:52.747Z,96962.03
2023-02-09T11:05:41.926Z,96960.59
2023-02-09T11:08:19.178Z,96954.31
2023-02-09T11:11:04.150Z,96950.97
2023-02-09T11:13:35.553Z,96948.13
2023-02-09T11:16:22.332Z,96933.00
2023-02-09T11:18:59.326Z,96952.25
2023-02-09T11:21:49.927Z,96947.19
2023-02-09T11:24:27.602Z,96947.41
2023-02-09T11:27:02.946Z,96931.00
2023-02-09T11:29:38.770Z,96910.25
2023-02-09T11:32:15.561Z,96922.19
2023-02-09T11:35:05.084Z,96925.13
2023-02-09T11:37:44.535Z,96927.16
2023-02-09T11:40:29.371Z,96920.78
2023-02-09T11:43:07.970Z,96918.00
2023-02-09T11:45:45.202Z,96918.31
2023-02-09T11:48:20.294Z,96918.75
2023-02-09T11:50:59.075Z,96918.13
2023-02-09T11:53:37.580Z,96849.69
2023-02-09T11:56:10.819Z,96899.91
2023-02-09T11:58:47.975Z,96898.59
2023-02-09T12:01:32.265Z,96889.38
2023-02-09T12:04:16.307Z,96894.59
2023-02-09T12:06:47.940Z,96888.31
2023-02-09T12:09:38.848Z,96878.13
2023-02-09T12:12:18.790Z,96872.44
2023-02-09T12:14:57.201Z,96871.97
2023-02-09T12:17:33.312Z,96877.94
2023-02-09T12:20:03.426Z,96873.81
2023-02-09T12:22:53.655Z,96879.41
2023-02-09T12:25:35.612Z,96881.47
2023-02-09T12:28:18.997Z,96878.75
2023-02-09T12:31:03.992Z,96867.13
2023-02-09T12:33:35.321Z,96877.13
2023-02-09T12:36:06.967Z,96869.56
2023-02-09T12:39:07.618Z,96871.41
2023-02-09T12:42:28.874Z,96879.66
2023-02-09T12:45:00.772Z,96868.22
2023-02-09T12:47:49.652Z,96884.59
2023-02-09T12:50:29.212Z,96890.31
2023-02-09T12:53:32.125Z,96893.59
2023-02-09T12:56:04.059Z,96849.13
2023-02-09T12:58:42.501Z,96908.41
2023-02-09T13:01:14.376Z,96879.78
2023-02-09T13:03:47.126Z,96899.59
2023-02-09T13:06:29.047Z,96901.69
2023-02-09T13:09:01.715Z,96897.63
2023-02-09T13:11:39.147Z,96906.63
2023-02-09T13:14:13.712Z,96917.75
2023-02-09T13:17:27.054Z,96912.44
2023-02-09T13:20:23.640Z,96919.81
2023-02-09T13:23:16.782Z,96931.50
2023-02-09T13:25:47.884Z,96923.03
2023-02-09T13:28:19.477Z,96925.28
2023-02-09T13:30:49.075Z,96914.72
2023-02-09T13:33:34.800Z,96917.22
2023-02-09T13:36:24.291Z,96912.53
2023-02-09T13:38:54.972Z,96911.72
2023-02-09T13:41:38.620Z,96889.13
2023-02-09T13:44:23.057Z,96906.50
2023-02-09T13:46:58.130Z,96905.41
2023-02-09T13:49:31.572Z,96902.94
2023-02-09T13:52:17.075Z,96910.81
2023-02-09T13:54:46.620Z,96919.88
2023-02-09T13:57:33.210Z,96922.53
2023-02-09T14:00:10.966Z,96929.22
2023-02-09T14:02:40.224Z,96944.06
2023-02-09T14:05:11.661Z,96927.44
2023-02-09T14:07:41.787Z,96925.31
2023-02-09T14:10:17.112Z,96932.00
2023-02-09T14:12:52.552Z,96913.25
2023-02-09T14:15:45.168Z,96929.72
2023-02-09T14:18:35.619Z,96932.09
2023-02-09T14:21:17.936Z,96923.78
2023-02-09T14:23:47.462Z,96918.75
2023-02-09T14:26:27.193Z,96923.22
2023-02-09T14:29:06.069Z,96933.84
2023-02-09T14:31:36.674Z,96935.78
2023-02-09T14:34:05.120Z,96928.16
2023-02-09T14:36:39.079Z,96946.38
2023-02-09T14:39:17.097Z,96941.34
2023-02-09T14:41:58.292Z,96933.47
2023-02-09T14:44:28.120Z,96914.06
2023-02-09T14:46:58.729Z,96931.75
2023-02-09T14:49:27.952Z,96927.28
2023-02-09T14:52:08.087Z,96929.28
2023-02-09T14:54:45.325Z,96930.66
2023-02-09T14:57:14.607Z,96937.97
2023-02-09T14:59:45.286Z,96921.78
2023-02-09T15:02:19.330Z,96941.00
2023-02-09T15:04:50.348Z,96939.91
2023-02-09T15:07:24.138Z,96944.03
2023-02-09T15:09:52.852Z,96947.88
2023-02-09T15:12:26.212Z,96948.53
2023-02-09T15:14:57.042Z,96933.69
2023-02-09T15:17:28.069Z,96948.44
2023-02-09T15:19:57.554Z,96953.13
2023-02-09T15:22:27.296Z,96946.31
2023-02-09T15:24:55.604Z,96939.09
2023-02-09T15:27:29.350Z,96928.66
2023-02-09T15:30:00.615Z,96934.34
2023-02-09T15:32:30.759Z,96916.94
2023-02-09T15:34:59.019Z,96895.88
2023-02-09T15:37:33.168Z,96891.31
2023-02-09T15:40:15.068Z,96909.16
2023-02-09T15:43:06.898Z,96820.09
2023-02-09T15:45:52.741Z,96922.53
2023-02-09T15:48:21.251Z,96921.16
2023-02-09T15:50:50.890Z,96916.81
2023-02-09T15:53:21.548Z,96914.81
2023-02-09T15:55:50.147Z,96920.47
2023-02-09T15:58:22.161Z,96929.81
2023-02-09T16:00:51.636Z,96910.63
2023-02-09T16:03:22.965Z,96936.91
2023-02-09T16:05:54.968Z,96945.38
2023-02-09T16:08:27.642Z,96943.28
2023-02-09T16:10:56.240Z,96930.72
2023-02-09T16:13:25.059Z,96937.22
2023-02-09T16:15:58.276Z,96925.31
2023-02-09T16:18:32.892Z,96921.63
2023-02-09T16:21:02.674Z,96917.59
2023-02-09T16:23:32.880Z,96944.50
2023-02-09T16:26:01.864Z,96947.50
2023-02-09T16:28:30.444Z,96935.28
2023-02-09T16:30:59.982Z,96942.56
2023-02-09T16:33:29.890Z,96948.59
2023-02-09T16:36:00.257Z,96948.13
2023-02-09T16:38:31.264Z,96960.75
2023-02-09T16:41:01.051Z,96971.19
2023-02-09T16:43:29.368Z,96984.94
2023-02-09T16:46:03.634Z,96969.25
2023-02-09T16:48:35.698Z,96979.19
2023-02-09T16:51:04.930Z,96983.84
2023-02-09T16:53:38.157Z,96959.09
2023-02-09T16:56:15.926Z,96971.09
2023-02-09T16:58:45.268Z,96937.03
2023-02-09T17:01:17.225Z,97002.44
2023-02-09T17:03:50.071Z,97004.06
2023-02-09T17:06:21.756Z,96991.69
2023-02-09T17:08:51.917Z,96989.53
2023-02-09T17:11:23.451Z,96969.91
2023-02-09T17:13:52.090Z,96985.13
2023-02-09T17:16:22.976Z,97001.59
2023-02-09T17:18:54.396Z,96996.84
2023-02-09T17:21:25.437Z,97004.13
2023-02-09T17:23:58.003Z,96996.69
2023-02-09T17:26:29.342Z,96996.56
2023-02-09T17:28:58.082Z,96989.28
2023-02-09T17:31:28.906Z,96977.69
2023-02-09T17:33:59.073Z,97000.19
2023-02-09T17:36:29.594Z,96993.59
2023-02-09T17:38:59.596Z,96974.78
2023-02-09T17:41:34.567Z,97005.84
2023-02-09T17:44:24.169Z,96946.41
2023-02-09T17:46:58.362Z,96982.59
2023-02-09T17:49:28.042Z,96987.69
2023-02-09T17:51:56.910Z,96977.94
2023-02-09T17:54:26.386Z,96969.03
2023-02-09T17:56:57.858Z,96987.38
2023-02-09T17:59:26.854Z,96973.66
2023-02-09T18:01:57.025Z,96962.59
2023-02-09T18:04:29.064Z,96977.63
2023-02-09T18:07:02.912Z,96980.25
2023-02-09T18:09:33.003Z,96951.06
2023-02-09T18:12:05.788Z,96994.63
2023-02-09T18:14:36.850Z,96998.94
2023-02-09T18:17:06.961Z,97006.88
2023-02-09T18:19:36.022Z,96990.84
2023-02-09T18:22:05.662Z,97011.47
2023-02-09T18:24:35.800Z,97017.09
2023-02-09T18:27:06.880Z,96969.56
2023-02-09T18:29:37.512Z,96991.38
2023-02-09T18:32:06.946Z,97001.28
2023-02-09T18:34:38.060Z,97007.91
2023-02-09T18:37:06.789Z,97013.03
2023-02-09T18:39:36.893Z,97017.47
2023-02-09T18:42:06.792Z,97015.81
2023-02-09T18:44:35.354Z,97011.88
2023-02-09T18:47:04.222Z,97012.19
2023-02-09T18:49:32.744Z,97025.44
2023-02-09T18:52:02.370Z,97026.41
2023-02-09T18:54:32.242Z,97026.72
2023-02-09T18:57:00.960Z,97025.09
2023-02-09T18:59:33.712Z,97031.22
2023-02-09T19:02:02.775Z,97015.19
2023-02-09T19:04:32.158Z,97029.06
2023-02-09T19:07:02.130Z,97025.09
2023-02-09T19:09:31.431Z,97027.25
2023-02-09T19:12:00.118Z,97034.34
2023-02-09T19:14:42.328Z,96965.31
2023-02-09T19:17:16.023Z,97028.41
2023-02-09T19:19:45.116Z,96966.28
2023-02-09T19:22:16.994Z,97051.03
2023-02-09T19:24:48.880Z,97053.84
2023-02-09T19:27:19.027Z,97033.53
2023-02-09T19:29:47.813Z,97049.38
2023-02-09T19:32:18.335Z,97053.84
2023-02-09T19:34:46.935Z,97055.69
2023-02-09T19:37:16.483Z,97054.00
2023-02-09T19:39:53.291Z,97046.41
2023-02-09T19:42:22.393Z,97048.53
2023-02-09T19:44:52.093Z,97049.22
2023-02-09T19:47:25.963Z,97023.44
2023-02-09T19:49:55.804Z,97030.38
2023-02-09T19:52:26.207Z,97049.56
2023-02-09T19:54:57.360Z,97056.16
2023-02-09T19:57:26.256Z,97056.84
2023-02-09T19:59:55.090Z,97046.91
2023-02-09T20:02:24.930Z,97062.09
2023-02-09T20:04:54.379Z,97054.16
2023-02-09T20:07:23.950Z,97026.72
2023-02-09T20:09:53.803Z,97064.41
2023-02-09T20:12:24.114Z,97067.06
2023-02-09T20:14:55.811Z,97069.53
2023-02-09T20:17:28.272Z,97072.03
2023-02-09T20:19:57.821Z,97083.06
2023-02-09T20:22:27.480Z,97075.66
2023-02-09T20:24:55.800Z,97081.94
2023-02-09T20:27:24.273Z,97075.00
2023-02-09T20:29:56.100Z,97080.59
2023-02-09T20:32:25.951Z,97076.66
2023-02-09T20:34:54.258Z,97080.94
2023-02-09T20:37:22.740Z,97075.78
2023-02-09T20:39:51.120Z,97084.72
2023-02-09T20:42:36.928Z,97082.25
2023-02-09T20:45:23.325Z,97079.91
2023-02-09T20:47:53.201Z,97087.19
2023-02-09T20:50:21.525Z,97079.13
2023-02-09T20:52:49.862Z,97078.94
2023-02-09T20:55:18.376Z,97076.75
2023-02-09T20:57:48.070Z,97074.44
2023-02-09T21:00:18.070Z,97072.81
2023-02-09T21:02:46.475Z,97056.78
2023-02-09T21:05:16.978Z,97075.59
2023-02-09T21:07:45.478Z,97081.91
2023-02-09T21:10:15.899Z,97065.53
2023-02-09T21:12:46.659Z,97091.13
2023-02-09T21:15:15.214Z,97085.84
2023-02-09T21:17:47.976Z,97091.25
2023-02-09T21:20:18.807Z,97088.41
2023-02-09T21:22:48.627Z,97034.19
2023-02-09T21:25:18.156Z,97085.47
2023-02-09T21:27:46.918Z,97102.97
2023-02-09T21:30:16.630Z,97087.94
2023-02-09T21:32:46.496Z,97074.53
2023-02-09T21:35:14.927Z,97084.66
2023-02-09T21:37:46.098Z,97077.19
2023-02-09T21:40:16.272Z,97075.06
2023-02-09T21:42:44.770Z,96974.03
2023-02-09T21:45:13.332Z,97070.63
2023-02-09T21:47:41.892Z,97066.66
2023-02-09T21:50:13.184Z,97061.53
2023-02-09T21:52:41.624Z,97073.94
2023-02-09T21:55:13.595Z,97076.56
2023-02-09T21:57:42.121Z,97071.78
2023-02-09T22:00:12.600Z,97054.41
2023-02-09T22:02:41.401Z,97063.19
2023-02-09T22:05:10.277Z,97057.41
2023-02-09T22:07:38.709Z,97083.19
2023-02-09T22:10:09.454Z,97071.28
2023-02-09T22:12:40.056Z,97080.69
2023-02-09T22:15:08.994Z,97090.41
2023-02-09T22:17:38.389Z,97086.16
2023-02-09T22:20:09.888Z,97075.69
2023-02-09T22:22:39.949Z,97085.13
2023-02-09T22:25:09.381Z,97080.53
2023-02-09T22:27:39.210Z,97093.44
2023-02-09T22:30:08.165Z,97090.59
2023-02-09T22:32:36.515Z,97102.31
2023-02-09T22:35:04.843Z,97100.84
2023-02-09T22:37:34.734Z,97094.75
2023-02-09T22:40:03.037Z,97109.91
2023-02-09T22:42:31.523Z,97111.88
2023-02-09T22:45:01.205Z,97113.66
2023-02-09T22:47:30.653Z,97111.81
2023-02-09T22:49:59.085Z,97119.91
2023-02-09T22:52:27.812Z,97126.50
2023-02-09T22:54:57.970Z,97121.09
2023-02-09T22:57:27.322Z,97122.06
2023-02-09T22:59:55.708Z,97112.34
2023-02-09T23:02:26.581Z,97110.78
2023-02-09T23:04:56.222Z,97111.13
2023-02-09T23:07:24.566Z,97120.41
2023-02-09T23:09:52.926Z,97092.59
2023-02-09T23:12:21.515Z,97124.72
2023-02-09T23:14:49.854Z,97068.63
2023-02-09T23:17:18.321Z,97108.13
2023-02-09T23:19:49.862Z,97126.31
2023-02-09T23:22:19.762Z,97117.09
2023-02-09T23:24:48.023Z,97121.66
2023-02-09T23:27:16.403Z,97125.31
2023-02-09T23:29:45.045Z,97124.16
2023-02-09T23:32:13.495Z,97124.16
2023-02-09T23:34:41.784Z,97121.13
2023-02-09T23:37:18.620Z,97127.41
2023-02-09T23:39:57.867Z,97107.84
2023-02-09T23:42:27.832Z,97126.84
2023-02-09T23:44:57.533Z,97124.22
2023-02-09T23:47:25.999Z,97115.59
2023-02-09T23:49:54.485Z,97130.16
2023-02-09T23:52:24.276Z,97129.66
2023-02-09T23:54:52.574Z,97126.88
2023-02-09T23:57:24.301Z,97137.84
2023-02-09T23:59:52.656Z,97148.91
